sensor_id;sensor_type;location;lat;lon;timestamp;pressure;altitude;pressure_sealevel;temperature;humidity
13952;BME280;39535;52.192;9.886;2023-07-31T00:01:28;99837.78;;;17.63;93.71
13952;BME280;39535;52.192;9.886;2023-07-31T00:03:56;99837.47;;;17.37;93.73
13952;BME280;39535;52.192;9.886;2023-07-31T00:06:22;99817.75;;;17.44;94.00
13952;BME280;39535;52.192;9.886;2023-07-31T00:08:48;99814.06;;;17.47;94.31
13952;BME280;39535;52.192;9.886;2023-07-31T00:11:15;99817.31;;;17.52;93.88
13952;BME280;39535;52.192;9.886;2023-07-31T00:13:41;99822.47;;;17.54;93.34
13952;BME280;39535;52.192;9.886;2023-07-31T00:16:08;99834.75;;;17.55;92.94
13952;BME280;39535;52.192;9.886;2023-07-31T00:18:34;99838.13;;;17.57;92.56
13952;BME280;39535;52.192;9.886;2023-07-31T00:21:02;99847.84;;;17.56;92.53
13952;BME280;39535;52.192;9.886;2023-07-31T00:23:28;99862.41;;;17.32;92.30
13952;BME280;39535;52.192;9.886;2023-07-31T00:25:55;99830.28;;;17.25;94.09
13952;BME280;39535;52.192;9.886;2023-07-31T00:28:21;99815.47;;;17.22;94.12
13952;BME280;39535;52.192;9.886;2023-07-31T00:30:48;99796.38;;;17.33;94.58
13952;BME280;39535;52.192;9.886;2023-07-31T00:33:14;99795.28;;;17.37;94.72
13952;BME280;39535;52.192;9.886;2023-07-31T00:35:40;99806.09;;;17.33;94.00
13952;BME280;39535;52.192;9.886;2023-07-31T00:38:08;99812.28;;;17.32;93.94
13952;BME280;39535;52.192;9.886;2023-07-31T00:40:35;99798.75;;;17.38;94.81
13952;BME280;39535;52.192;9.886;2023-07-31T00:43:02;99800.72;;;17.34;94.06
13952;BME280;39535;52.192;9.886;2023-07-31T00:45:29;99808.38;;;17.39;93.82
13952;BME280;39535;52.192;9.886;2023-07-31T00:47:56;99788.97;;;17.40;94.56
13952;BME280;39535;52.192;9.886;2023-07-31T00:50:22;99803.59;;;17.45;94.00
13952;BME280;39535;52.192;9.886;2023-07-31T00:52:50;99810.75;;;17.43;93.71
13952;BME280;39535;52.192;9.886;2023-07-31T00:55:18;99807.75;;;17.50;94.32
13952;BME280;39535;52.192;9.886;2023-07-31T00:57:45;99802.47;;;17.50;94.48
13952;BME280;39535;52.192;9.886;2023-07-31T01:00:12;99790.91;;;17.52;94.55
13952;BME280;39535;52.192;9.886;2023-07-31T01:02:38;99780.16;;;17.55;94.85
13952;BME280;39535;52.192;9.886;2023-07-31T01:05:05;99784.97;;;17.49;94.99
13952;BME280;39535;52.192;9.886;2023-07-31T01:07:38;99783.06;;;17.51;94.85
13952;BME280;39535;52.192;9.886;2023-07-31T01:10:11;99772.53;;;17.51;95.50
13952;BME280;39535;52.192;9.886;2023-07-31T01:12:41;99784.75;;;17.52;94.39
13952;BME280;39535;52.192;9.886;2023-07-31T01:15:09;99769.00;;;17.50;95.80
13952;BME280;39535;52.192;9.886;2023-07-31T01:17:37;99762.13;;;17.47;95.71
13952;BME280;39535;52.192;9.886;2023-07-31T01:20:08;99762.53;;;17.25;96.05
13952;BME280;39535;52.192;9.886;2023-07-31T01:25:54;99717.91;;;17.37;97.41
13952;BME280;39535;52.192;9.886;2023-07-31T01:28:26;99713.66;;;17.34;97.75
13952;BME280;39535;52.192;9.886;2023-07-31T01:30:55;99686.25;;;17.06;98.94
13952;BME280;39535;52.192;9.886;2023-07-31T01:33:24;99688.19;;;17.19;98.50
13952;BME280;39535;52.192;9.886;2023-07-31T01:35:52;99671.69;;;17.15;99.91
13952;BME280;39535;52.192;9.886;2023-07-31T01:38:20;99662.75;;;17.18;99.78
13952;BME280;39535;52.192;9.886;2023-07-31T01:40:52;99656.50;;;17.04;99.99
13952;BME280;39535;52.192;9.886;2023-07-31T01:43:19;99645.69;;;17.09;100.00
13952;BME280;39535;52.192;9.886;2023-07-31T01:45:45;99634.56;;;17.04;100.00
13952;BME280;39535;52.192;9.886;2023-07-31T01:48:12;99630.47;;;16.98;100.00
13952;BME280;39535;52.192;9.886;2023-07-31T01:50:38;99635.38;;;17.04;100.00
13952;BME280;39535;52.192;9.886;2023-07-31T01:53:05;99626.19;;;17.12;100.00
13952;BME280;39535;52.192;9.886;2023-07-31T01:55:31;99629.41;;;17.17;100.00
13952;BME280;39535;52.192;9.886;2023-07-31T01:57:59;99625.06;;;17.16;100.00
13952;BME280;39535;52.192;9.886;2023-07-31T02:00:25;99625.75;;;17.19;100.00
13952;BME280;39535;52.192;9.886;2023-07-31T02:02:52;99623.03;;;17.21;100.00
13952;BME280;39535;52.192;9.886;2023-07-31T02:05:18;99612.84;;;17.15;100.00
13952;BME280;39535;52.192;9.886;2023-07-31T02:07:44;99613.09;;;17.10;100.00
13952;BME280;39535;52.192;9.886;2023-07-31T02:10:11;99603.88;;;17.03;100.00
13952;BME280;39535;52.192;9.886;2023-07-31T02:12:37;99603.75;;;17.04;100.00
13952;BME280;39535;52.192;9.886;2023-07-31T02:15:06;99607.06;;;17.08;100.00
13952;BME280;39535;52.192;9.886;2023-07-31T02:17:33;99604.50;;;17.06;100.00
13952;BME280;39535;52.192;9.886;2023-07-31T02:20:00;99584.44;;;17.04;100.00
13952;BME280;39535;52.192;9.886;2023-07-31T02:22:26;99593.72;;;17.11;100.00
13952;BME280;39535;52.192;9.886;2023-07-31T02:24:52;99602.47;;;17.12;100.00
13952;BME280;39535;52.192;9.886;2023-07-31T02:27:19;99586.63;;;17.12;100.00
13952;BME280;39535;52.192;9.886;2023-07-31T02:29:49;99581.06;;;17.16;100.00
13952;BME280;39535;52.192;9.886;2023-07-31T02:32:17;99588.34;;;17.13;100.00
13952;BME280;39535;52.192;9.886;2023-07-31T02:34:43;99588.81;;;17.05;100.00
13952;BME280;39535;52.192;9.886;2023-07-31T02:37:09;99589.47;;;17.09;100.00
13952;BME280;39535;52.192;9.886;2023-07-31T02:39:36;99585.78;;;17.11;100.00
13952;BME280;39535;52.192;9.886;2023-07-31T02:42:03;99581.38;;;17.12;100.00
13952;BME280;39535;52.192;9.886;2023-07-31T02:44:29;99603.13;;;17.15;100.00
13952;BME280;39535;52.192;9.886;2023-07-31T02:46:56;99590.94;;;16.98;100.00
13952;BME280;39535;52.192;9.886;2023-07-31T02:49:23;99588.81;;;17.05;100.00
13952;BME280;39535;52.192;9.886;2023-07-31T02:51:50;99589.25;;;16.97;100.00
13952;BME280;39535;52.192;9.886;2023-07-31T02:54:16;99581.78;;;16.90;100.00
13952;BME280;39535;52.192;9.886;2023-07-31T02:56:43;99572.00;;;16.92;100.00
13952;BME280;39535;52.192;9.886;2023-07-31T02:59:09;99565.03;;;16.91;100.00
13952;BME280;39535;52.192;9.886;2023-07-31T03:01:35;99560.22;;;16.83;100.00
13952;BME280;39535;52.192;9.886;2023-07-31T03:04:02;99555.47;;;16.74;100.00
13952;BME280;39535;52.192;9.886;2023-07-31T03:06:30;99559.09;;;16.87;100.00
13952;BME280;39535;52.192;9.886;2023-07-31T03:08:56;99560.13;;;16.68;100.00
13952;BME280;39535;52.192;9.886;2023-07-31T03:11:23;99556.63;;;16.84;100.00
13952;BME280;39535;52.192;9.886;2023-07-31T03:13:49;99566.81;;;16.90;100.00
13952;BME280;39535;52.192;9.886;2023-07-31T03:16:16;99585.56;;;17.00;100.00
13952;BME280;39535;52.192;9.886;2023-07-31T03:18:42;99584.53;;;17.02;100.00
13952;BME280;39535;52.192;9.886;2023-07-31T03:21:08;99569.69;;;17.01;100.00
13952;BME280;39535;52.192;9.886;2023-07-31T03:23:36;99575.41;;;16.94;100.00
13952;BME280;39535;52.192;9.886;2023-07-31T03:26:07;99566.06;;;16.72;100.00
13952;BME280;39535;52.192;9.886;2023-07-31T03:28:34;99568.22;;;16.65;100.00
13952;BME280;39535;52.192;9.886;2023-07-31T03:31:00;99553.34;;;16.34;100.00
13952;BME280;39535;52.192;9.886;2023-07-31T03:33:27;99535.97;;;16.46;100.00
13952;BME280;39535;52.192;9.886;2023-07-31T03:35:54;99524.28;;;16.36;100.00
13952;BME280;39535;52.192;9.886;2023-07-31T03:38:20;99516.47;;;16.34;100.00
13952;BME280;39535;52.192;9.886;2023-07-31T03:40:48;99522.28;;;16.09;100.00
13952;BME280;39535;52.192;9.886;2023-07-31T03:43:15;99501.47;;;16.20;100.00
13952;BME280;39535;52.192;9.886;2023-07-31T03:45:41;99508.75;;;16.15;100.00
13952;BME280;39535;52.192;9.886;2023-07-31T03:48:08;99508.31;;;16.23;100.00
13952;BME280;39535;52.192;9.886;2023-07-31T03:50:34;99519.03;;;16.36;100.00
13952;BME280;39535;52.192;9.886;2023-07-31T03:53:01;99531.38;;;16.50;100.00
13952;BME280;39535;52.192;9.886;2023-07-31T03:55:27;99556.78;;;16.51;100.00
13952;BME280;39535;52.192;9.886;2023-07-31T03:57:55;99553.72;;;16.58;100.00
13952;BME280;39535;52.192;9.886;2023-07-31T04:00:21;99585.16;;;16.61;100.00
13952;BME280;39535;52.192;9.886;2023-07-31T04:02:48;99579.97;;;16.60;100.00
13952;BME280;39535;52.192;9.886;2023-07-31T04:05:14;99589.22;;;16.67;100.00
13952;BME280;39535;52.192;9.886;2023-07-31T04:07:41;99604.16;;;16.66;100.00
13952;BME280;39535;52.192;9.886;2023-07-31T04:10:08;99595.44;;;16.66;100.00
13952;BME280;39535;52.192;9.886;2023-07-31T04:12:34;99585.00;;;16.48;100.00
13952;BME280;39535;52.192;9.886;2023-07-31T04:15:02;99587.31;;;16.39;100.00
13952;BME280;39535;52.192;9.886;2023-07-31T04:17:29;99569.75;;;16.39;100.00
13952;BME280;39535;52.192;9.886;2023-07-31T04:19:55;99561.84;;;16.39;100.00
13952;BME280;39535;52.192;9.886;2023-07-31T04:22:22;99559.97;;;16.41;100.00
13952;BME280;39535;52.192;9.886;2023-07-31T04:24:48;99559.41;;;16.51;100.00
13952;BME280;39535;52.192;9.886;2023-07-31T04:27:15;99579.22;;;16.58;100.00
13952;BME280;39535;52.192;9.886;2023-07-31T04:29:41;99578.09;;;16.62;100.00
13952;BME280;39535;52.192;9.886;2023-07-31T04:32:10;99588.56;;;16.63;100.00
13952;BME280;39535;52.192;9.886;2023-07-31T04:34:37;99592.03;;;16.64;100.00
13952;BME280;39535;52.192;9.886;2023-07-31T04:37:03;99601.53;;;16.66;100.00
13952;BME280;39535;52.192;9.886;2023-07-31T04:39:30;99595.25;;;16.69;100.00
13952;BME280;39535;52.192;9.886;2023-07-31T04:41:56;99594.38;;;16.68;100.00
13952;BME280;39535;52.192;9.886;2023-07-31T04:44:23;99592.72;;;16.67;100.00
13952;BME280;39535;52.192;9.886;2023-07-31T04:46:49;99597.56;;;16.59;100.00
13952;BME280;39535;52.192;9.886;2023-07-31T04:49:17;99583.41;;;16.46;100.00
13952;BME280;39535;52.192;9.886;2023-07-31T04:51:44;99563.72;;;16.21;100.00
13952;BME280;39535;52.192;9.886;2023-07-31T04:54:11;99548.34;;;16.30;100.00
13952;BME280;39535;52.192;9.886;2023-07-31T04:56:40;99549.59;;;16.38;100.00
13952;BME280;39535;52.192;9.886;2023-07-31T04:59:06;99540.66;;;16.41;100.00
13952;BME280;39535;52.192;9.886;2023-07-31T05:01:33;99538.69;;;16.44;100.00
13952;BME280;39535;52.192;9.886;2023-07-31T05:03:59;99534.03;;;16.50;100.00
13952;BME280;39535;52.192;9.886;2023-07-31T05:06:27;99532.72;;;16.57;100.00
13952;BME280;39535;52.192;9.886;2023-07-31T05:08:53;99538.66;;;16.60;100.00
13952;BME280;39535;52.192;9.886;2023-07-31T05:11:19;99535.03;;;16.47;100.00
13952;BME280;39535;52.192;9.886;2023-07-31T05:13:46;99534.59;;;16.55;100.00
13952;BME280;39535;52.192;9.886;2023-07-31T05:16:12;99516.06;;;16.56;100.00
13952;BME280;39535;52.192;9.886;2023-07-31T05:18:40;99509.25;;;16.38;100.00
13952;BME280;39535;52.192;9.886;2023-07-31T05:21:06;99502.25;;;16.37;100.00
13952;BME280;39535;52.192;9.886;2023-07-31T05:23:34;99504.09;;;16.51;100.00
13952;BME280;39535;52.192;9.886;2023-07-31T05:26:04;99498.94;;;16.49;100.00
13952;BME280;39535;52.192;9.886;2023-07-31T05:28:30;99504.84;;;16.53;100.00
13952;BME280;39535;52.192;9.886;2023-07-31T05:30:59;99503.25;;;16.50;100.00
13952;BME280;39535;52.192;9.886;2023-07-31T05:33:25;99494.44;;;16.51;100.00
13952;BME280;39535;52.192;9.886;2023-07-31T05:35:51;99503.94;;;16.54;100.00
13952;BME280;39535;52.192;9.886;2023-07-31T05:38:18;99508.84;;;16.60;100.00
13952;BME280;39535;52.192;9.886;2023-07-31T05:40:46;99500.97;;;16.44;100.00
13952;BME280;39535;52.192;9.886;2023-07-31T05:43:12;99504.47;;;16.44;100.00
13952;BME280;39535;52.192;9.886;2023-07-31T05:45:39;99492.41;;;16.40;100.00
13952;BME280;39535;52.192;9.886;2023-07-31T05:48:06;99482.75;;;16.25;100.00
13952;BME280;39535;52.192;9.886;2023-07-31T05:50:32;99483.38;;;16.44;100.00
13952;BME280;39535;52.192;9.886;2023-07-31T05:52:59;99490.38;;;16.45;100.00
13952;BME280;39535;52.192;9.886;2023-07-31T05:55:26;99494.56;;;16.34;100.00
13952;BME280;39535;52.192;9.886;2023-07-31T05:57:54;99491.13;;;16.47;100.00
13952;BME280;39535;52.192;9.886;2023-07-31T06:00:21;99493.84;;;16.46;100.00
13952;BME280;39535;52.192;9.886;2023-07-31T06:02:48;99492.34;;;16.56;100.00
13952;BME280;39535;52.192;9.886;2023-07-31T06:05:14;99498.97;;;16.63;100.00
13952;BME280;39535;52.192;9.886;2023-07-31T06:07:40;99501.09;;;16.57;100.00
13952;BME280;39535;52.192;9.886;2023-07-31T06:10:07;99506.78;;;16.65;100.00
13952;BME280;39535;52.192;9.886;2023-07-31T06:12:35;99504.78;;;16.68;100.00
13952;BME280;39535;52.192;9.886;2023-07-31T06:15:03;99509.13;;;16.70;100.00
13952;BME280;39535;52.192;9.886;2023-07-31T06:17:31;99519.19;;;16.63;100.00
13952;BME280;39535;52.192;9.886;2023-07-31T06:19:57;99527.63;;;16.54;100.00
13952;BME280;39535;52.192;9.886;2023-07-31T06:22:23;99524.69;;;16.44;100.00
13952;BME280;39535;52.192;9.886;2023-07-31T06:25:03;99520.66;;;16.53;100.00
13952;BME280;39535;52.192;9.886;2023-07-31T06:27:29;99521.41;;;16.55;100.00
13952;BME280;39535;52.192;9.886;2023-07-31T06:29:56;99521.06;;;16.61;100.00
13952;BME280;39535;52.192;9.886;2023-07-31T06:32:24;99527.88;;;16.65;100.00
13952;BME280;39535;52.192;9.886;2023-07-31T06:34:50;99522.00;;;16.60;100.00
13952;BME280;39535;52.192;9.886;2023-07-31T06:37:17;99516.78;;;16.44;100.00
13952;BME280;39535;52.192;9.886;2023-07-31T06:39:43;99509.38;;;16.51;100.00
13952;BME280;39535;52.192;9.886;2023-07-31T06:42:10;99515.03;;;16.28;100.00
13952;BME280;39535;52.192;9.886;2023-07-31T06:44:36;99511.13;;;16.36;100.00
13952;BME280;39535;52.192;9.886;2023-07-31T06:47:03;99512.63;;;16.40;100.00
13952;BME280;39535;52.192;9.886;2023-07-31T06:49:37;99511.00;;;16.53;100.00
13952;BME280;39535;52.192;9.886;2023-07-31T06:52:04;99531.63;;;16.45;100.00
13952;BME280;39535;52.192;9.886;2023-07-31T06:54:31;99527.63;;;16.54;100.00
13952;BME280;39535;52.192;9.886;2023-07-31T06:56:57;99539.47;;;16.46;100.00
13952;BME280;39535;52.192;9.886;2023-07-31T06:59:24;99541.28;;;16.30;100.00
13952;BME280;39535;52.192;9.886;2023-07-31T07:01:50;99522.22;;;16.41;100.00
13952;BME280;39535;52.192;9.886;2023-07-31T07:04:17;99534.38;;;16.43;100.00
13952;BME280;39535;52.192;9.886;2023-07-31T07:06:47;99540.66;;;16.41;100.00
13952;BME280;39535;52.192;9.886;2023-07-31T07:09:13;99537.78;;;16.45;100.00
13952;BME280;39535;52.192;9.886;2023-07-31T07:11:40;99536.66;;;16.50;100.00
13952;BME280;39535;52.192;9.886;2023-07-31T07:14:07;99539.84;;;16.55;100.00
13952;BME280;39535;52.192;9.886;2023-07-31T07:16:39;99549.84;;;16.50;100.00
13952;BME280;39535;52.192;9.886;2023-07-31T07:19:06;99550.22;;;16.58;100.00
13952;BME280;39535;52.192;9.886;2023-07-31T07:21:42;99557.19;;;16.59;100.00
13952;BME280;39535;52.192;9.886;2023-07-31T07:24:09;99556.03;;;16.48;100.00
13952;BME280;39535;52.192;9.886;2023-07-31T07:26:36;99552.06;;;16.41;100.00
13952;BME280;39535;52.192;9.886;2023-07-31T07:29:02;99549.75;;;16.51;100.00
13952;BME280;39535;52.192;9.886;2023-07-31T07:31:29;99552.53;;;16.48;100.00
13952;BME280;39535;52.192;9.886;2023-07-31T07:33:55;99553.22;;;16.52;100.00
13952;BME280;39535;52.192;9.886;2023-07-31T07:36:22;99552.09;;;16.56;100.00
13952;BME280;39535;52.192;9.886;2023-07-31T07:38:48;99547.63;;;16.42;100.00
13952;BME280;39535;52.192;9.886;2023-07-31T07:41:16;99546.53;;;16.46;100.00
13952;BME280;39535;52.192;9.886;2023-07-31T07:43:42;99550.16;;;16.59;100.00
13952;BME280;39535;52.192;9.886;2023-07-31T07:46:09;99556.94;;;16.63;100.00
13952;BME280;39535;52.192;9.886;2023-07-31T07:48:35;99574.03;;;16.56;100.00
13952;BME280;39535;52.192;9.886;2023-07-31T07:51:02;99578.53;;;16.54;100.00
13952;BME280;39535;52.192;9.886;2023-07-31T07:53:28;99580.50;;;16.35;100.00
13952;BME280;39535;52.192;9.886;2023-07-31T07:55:55;99580.59;;;16.49;100.00
13952;BME280;39535;52.192;9.886;2023-07-31T07:58:22;99566.56;;;16.48;100.00
13952;BME280;39535;52.192;9.886;2023-07-31T08:00:50;99577.19;;;16.47;100.00
13952;BME280;39535;52.192;9.886;2023-07-31T08:03:17;99550.22;;;16.58;100.00
13952;BME280;39535;52.192;9.886;2023-07-31T08:05:43;99550.91;;;16.61;100.00
13952;BME280;39535;52.192;9.886;2023-07-31T08:08:13;99573.66;;;16.62;100.00
13952;BME280;39535;52.192;9.886;2023-07-31T08:10:40;99569.66;;;16.71;100.00
13952;BME280;39535;52.192;9.886;2023-07-31T08:13:06;99574.25;;;16.83;100.00
13952;BME280;39535;52.192;9.886;2023-07-31T08:15:34;99569.72;;;16.85;100.00
13952;BME280;39535;52.192;9.886;2023-07-31T08:18:01;99570.03;;;16.95;100.00
13952;BME280;39535;52.192;9.886;2023-07-31T08:20:27;99587.00;;;17.05;100.00
13952;BME280;39535;52.192;9.886;2023-07-31T08:22:54;99598.31;;;17.07;100.00
13952;BME280;39535;52.192;9.886;2023-07-31T08:25:20;99588.44;;;17.11;100.00
13952;BME280;39535;52.192;9.886;2023-07-31T08:27:46;99586.09;;;17.21;100.00
13952;BME280;39535;52.192;9.886;2023-07-31T08:30:13;99589.03;;;17.31;100.00
13952;BME280;39535;52.192;9.886;2023-07-31T08:32:40;99599.22;;;17.37;100.00
13952;BME280;39535;52.192;9.886;2023-07-31T08:35:11;99601.63;;;17.40;100.00
13952;BME280;39535;52.192;9.886;2023-07-31T08:37:40;99607.50;;;17.45;100.00
13952;BME280;39535;52.192;9.886;2023-07-31T08:40:08;99602.31;;;17.43;100.00
13952;BME280;39535;52.192;9.886;2023-07-31T08:42:49;99588.56;;;17.38;100.00
13952;BME280;39535;52.192;9.886;2023-07-31T08:45:17;99598.75;;;17.44;100.00
13952;BME280;39535;52.192;9.886;2023-07-31T08:47:49;99583.16;;;17.25;100.00
13952;BME280;39535;52.192;9.886;2023-07-31T08:50:17;99566.06;;;17.02;100.00
13952;BME280;39535;52.192;9.886;2023-07-31T08:52:45;99544.81;;;17.05;100.00
13952;BME280;39535;52.192;9.886;2023-07-31T08:55:12;99537.19;;;17.15;100.00
13952;BME280;39535;52.192;9.886;2023-07-31T08:57:39;99541.53;;;17.16;100.00
13952;BME280;39535;52.192;9.886;2023-07-31T09:00:07;99536.81;;;16.93;100.00
13952;BME280;39535;52.192;9.886;2023-07-31T09:02:37;99517.13;;;16.68;100.00
13952;BME280;39535;52.192;9.886;2023-07-31T09:05:13;99487.97;;;16.71;100.00
13952;BME280;39535;52.192;9.886;2023-07-31T09:07:45;99473.84;;;16.72;100.00
13952;BME280;39535;52.192;9.886;2023-07-31T09:16:17;99481.06;;;16.99;100.00
13952;BME280;39535;52.192;9.886;2023-07-31T09:18:55;99482.00;;;17.12;100.00
13952;BME280;39535;52.192;9.886;2023-07-31T09:21:27;99477.00;;;17.22;100.00
13952;BME280;39535;52.192;9.886;2023-07-31T09:23:57;99485.66;;;17.24;100.00
13952;BME280;39535;52.192;9.886;2023-07-31T09:26:32;99482.00;;;17.26;100.00
13952;BME280;39535;52.192;9.886;2023-07-31T09:29:05;99497.34;;;17.34;100.00
13952;BME280;39535;52.192;9.886;2023-07-31T09:31:41;99500.38;;;17.42;100.00
13952;BME280;39535;52.192;9.886;2023-07-31T09:34:13;99509.50;;;17.37;100.00
13952;BME280;39535;52.192;9.886;2023-07-31T09:36:48;99509.41;;;17.38;100.00
13952;BME280;39535;52.192;9.886;2023-07-31T09:39:22;99502.06;;;17.43;100.00
13952;BME280;39535;52.192;9.886;2023-07-31T09:41:57;99509.41;;;17.38;100.00
13952;BME280;39535;52.192;9.886;2023-07-31T09:44:43;99494.34;;;17.40;100.00
13952;BME280;39535;52.192;9.886;2023-07-31T09:47:22;99501.38;;;17.40;100.00
13952;BME280;39535;52.192;9.886;2023-07-31T09:49:52;99509.88;;;17.45;100.00
13952;BME280;39535;52.192;9.886;2023-07-31T09:52:28;99491.13;;;17.35;100.00
13952;BME280;39535;52.192;9.886;2023-07-31T09:54:55;99501.31;;;17.41;100.00
13952;BME280;39535;52.192;9.886;2023-07-31T09:57:22;99498.97;;;17.37;100.00
13952;BME280;39535;52.192;9.886;2023-07-31T09:59:52;99496.03;;;17.41;100.00
13952;BME280;39535;52.192;9.886;2023-07-31T10:02:22;99495.84;;;17.44;100.00
13952;BME280;39535;52.192;9.886;2023-07-31T10:04:51;99494.59;;;17.36;100.00
13952;BME280;39535;52.192;9.886;2023-07-31T10:07:25;99490.38;;;17.47;100.00
13952;BME280;39535;52.192;9.886;2023-07-31T10:09:53;99495.06;;;17.57;100.00
13952;BME280;39535;52.192;9.886;2023-07-31T10:12:23;99514.00;;;17.63;100.00
13952;BME280;39535;52.192;9.886;2023-07-31T10:14:54;99497.78;;;17.84;100.00
13952;BME280;39535;52.192;9.886;2023-07-31T10:17:25;99510.88;;;17.85;100.00
13952;BME280;39535;52.192;9.886;2023-07-31T10:19:53;99508.56;;;17.94;100.00
13952;BME280;39535;52.192;9.886;2023-07-31T10:22:20;99551.56;;;17.81;100.00
13952;BME280;39535;52.192;9.886;2023-07-31T10:24:48;99538.66;;;17.91;100.00
13952;BME280;39535;52.192;9.886;2023-07-31T10:27:16;99520.28;;;17.90;100.00
13952;BME280;39535;52.192;9.886;2023-07-31T10:29:43;99517.16;;;17.97;100.00
13952;BME280;39535;52.192;9.886;2023-07-31T10:32:13;99512.84;;;17.96;100.00
13952;BME280;39535;52.192;9.886;2023-07-31T10:34:41;99511.38;;;18.05;100.00
13952;BME280;39535;52.192;9.886;2023-07-31T10:37:20;99503.31;;;18.21;100.00
13952;BME280;39535;52.192;9.886;2023-07-31T10:39:57;99499.59;;;18.23;100.00
13952;BME280;39535;52.192;9.886;2023-07-31T10:42:31;99506.69;;;18.23;100.00
13952;BME280;39535;52.192;9.886;2023-07-31T10:45:01;99511.91;;;18.37;100.00
13952;BME280;39535;52.192;9.886;2023-07-31T10:47:28;99501.38;;;18.63;100.00
13952;BME280;39535;52.192;9.886;2023-07-31T10:50:16;99478.94;;;18.96;100.00
13952;BME280;39535;52.192;9.886;2023-07-31T10:52:46;99515.00;;;19.10;100.00
13952;BME280;39535;52.192;9.886;2023-07-31T10:55:26;99570.56;;;19.10;100.00
13952;BME280;39535;52.192;9.886;2023-07-31T10:57:53;99590.22;;;19.18;100.00
13952;BME280;39535;52.192;9.886;2023-07-31T11:00:21;99614.78;;;19.08;100.00
13952;BME280;39535;52.192;9.886;2023-07-31T11:03:02;99635.09;;;19.20;99.78
13952;BME280;39535;52.192;9.886;2023-07-31T11:05:41;99649.63;;;19.27;98.40
13952;BME280;39535;52.192;9.886;2023-07-31T11:08:11;99638.75;;;19.44;99.59
13952;BME280;39535;52.192;9.886;2023-07-31T11:10:39;99645.38;;;19.50;98.63
13952;BME280;39535;52.192;9.886;2023-07-31T11:13:05;99642.03;;;19.61;99.39
13952;BME280;39535;52.192;9.886;2023-07-31T11:15:32;99683.75;;;19.44;96.24
13952;BME280;39535;52.192;9.886;2023-07-31T11:18:00;99699.44;;;19.20;94.20
13952;BME280;39535;52.192;9.886;2023-07-31T11:20:29;99677.34;;;19.34;97.55
13952;BME280;39535;52.192;9.886;2023-07-31T11:22:58;99659.50;;;19.51;98.38
13952;BME280;39535;52.192;9.886;2023-07-31T11:25:25;99641.78;;;19.64;99.47
13952;BME280;39535;52.192;9.886;2023-07-31T11:27:53;99643.84;;;19.60;97.94
13952;BME280;39535;52.192;9.886;2023-07-31T11:30:21;99649.13;;;19.60;97.21
13952;BME280;39535;52.192;9.886;2023-07-31T11:32:48;99663.84;;;19.64;96.42
13952;BME280;39535;52.192;9.886;2023-07-31T11:35:15;99681.19;;;19.43;94.76
13952;BME280;39535;52.192;9.886;2023-07-31T11:37:42;99691.66;;;19.32;94.62
13952;BME280;39535;52.192;9.886;2023-07-31T11:40:10;99672.50;;;19.41;96.14
13952;BME280;39535;52.192;9.886;2023-07-31T11:42:37;99663.41;;;19.45;96.16
13952;BME280;39535;52.192;9.886;2023-07-31T11:45:06;99642.03;;;19.61;97.36
13952;BME280;39535;52.192;9.886;2023-07-31T11:47:33;99641.28;;;19.59;97.34
13952;BME280;39535;52.192;9.886;2023-07-31T11:50:00;99643.69;;;19.62;96.03
13952;BME280;39535;52.192;9.886;2023-07-31T11:52:28;99666.91;;;19.45;94.15
13952;BME280;39535;52.192;9.886;2023-07-31T11:54:56;99652.28;;;19.65;95.08
13952;BME280;39535;52.192;9.886;2023-07-31T11:57:23;99684.28;;;19.62;93.54
13952;BME280;39535;52.192;9.886;2023-07-31T11:59:50;99679.59;;;19.66;93.31
13952;BME280;39535;52.192;9.886;2023-07-31T12:02:18;99684.78;;;19.68;93.36
13952;BME280;39535;52.192;9.886;2023-07-31T12:04:46;99669.88;;;19.79;93.49
13952;BME280;39535;52.192;9.886;2023-07-31T12:07:13;99694.53;;;19.67;92.54
13952;BME280;39535;52.192;9.886;2023-07-31T12:09:50;99662.56;;;19.57;94.82
13952;BME280;39535;52.192;9.886;2023-07-31T12:12:19;99657.81;;;19.62;94.16
13952;BME280;39535;52.192;9.886;2023-07-31T12:14:46;99634.50;;;19.55;94.70
13952;BME280;39535;52.192;9.886;2023-07-31T12:17:12;99628.16;;;19.44;95.97
13952;BME280;39535;52.192;9.886;2023-07-31T12:19:41;99591.28;;;19.54;98.11
13952;BME280;39535;52.192;9.886;2023-07-31T12:22:11;99579.75;;;19.30;98.42
13952;BME280;39535;52.192;9.886;2023-07-31T12:24:39;99551.41;;;19.19;99.52
13952;BME280;39535;52.192;9.886;2023-07-31T12:27:09;99509.06;;;19.32;100.00
13952;BME280;39535;52.192;9.886;2023-07-31T12:29:35;99502.16;;;19.42;100.00
13952;BME280;39535;52.192;9.886;2023-07-31T12:32:03;99513.16;;;19.49;100.00
13952;BME280;39535;52.192;9.886;2023-07-31T12:34:29;99518.97;;;19.54;100.00
13952;BME280;39535;52.192;9.886;2023-07-31T12:36:57;99527.00;;;19.52;100.00
13952;BME280;39535;52.192;9.886;2023-07-31T12:39:24;99509.00;;;19.57;100.00
13952;BME280;39535;52.192;9.886;2023-07-31T12:41:51;99489.00;;;19.53;100.00
13952;BME280;39535;52.192;9.886;2023-07-31T12:44:17;99479.84;;;19.33;100.00
13952;BME280;39535;52.192;9.886;2023-07-31T12:46:44;99455.94;;;19.35;100.00
13952;BME280;39535;52.192;9.886;2023-07-31T12:49:10;99430.75;;;19.29;100.00
13952;BME280;39535;52.192;9.886;2023-07-31T12:51:36;99414.88;;;19.16;100.00
13952;BME280;39535;52.192;9.886;2023-07-31T12:54:04;99408.72;;;19.29;100.00
13952;BME280;39535;52.192;9.886;2023-07-31T12:56:31;99402.72;;;19.27;100.00
13952;BME280;39535;52.192;9.886;2023-07-31T12:58:57;99414.31;;;19.37;100.00
13952;BME280;39535;52.192;9.886;2023-07-31T13:01:24;99427.47;;;19.25;100.00
13952;BME280;39535;52.192;9.886;2023-07-31T13:03:50;99437.91;;;19.40;100.00
13952;BME280;39535;52.192;9.886;2023-07-31T13:06:16;99458.38;;;19.12;100.00